Time;durP1;ratioP1;P1;durP2;ratioP2;P2;SDS_P1;SDS_P2;PMS_P1;PMS_P2;Temp;Humidity;BMP_temperature;BMP_pressure;BME280_temperature;BME280_humidity;BME280_pressure;Samples;Min_cycle;Max_cycle;Signal;HPM_P1;HPM_P2
2021/01/08 00:00:56;;;;;;;16.63;15.02;;;5.10;99.90;;;;;;2055638;29;20038;-81
2021/01/08 00:01:57;;;;;;;17.20;15.60;;;5.10;99.90;;;;;;2063136;28;20061;-81
2021/01/08 00:02:57;;;;;;;17.48;15.73;;;5.10;99.90;;;;;;2064876;28;20027;-80
2021/01/08 00:03:58;;;;;;;16.42;14.85;;;5.10;99.90;;;;;;2064391;28;20123;-80
2021/01/08 00:05:02;;;;;;;16.33;14.82;;;5.10;99.90;;;;;;2063259;28;20051;-81
2021/01/08 00:06:02;;;;;;;16.70;15.07;;;5.20;99.90;;;;;;2056416;29;20011;-80
2021/01/08 00:07:05;;;;;;;15.65;14.23;;;5.10;99.90;;;;;;2064486;28;20050;-80
2021/01/08 00:08:11;;;;;;;15.27;13.77;;;5.10;99.90;;;;;;2063274;28;20025;-81
2021/01/08 00:09:12;;;;;;;13.45;12.20;;;5.10;99.90;;;;;;2056413;28;20007;-80
2021/01/08 00:10:17;;;;;;;15.68;14.18;;;5.10;99.90;;;;;;2056579;28;20027;-80
2021/01/08 00:11:24;;;;;;;14.43;13.02;;;5.10;99.90;;;;;;2049185;29;20027;-80
2021/01/08 00:12:32;;;;;;;13.15;11.90;;;5.10;99.90;;;;;;2055751;29;20030;-80
2021/01/08 00:13:34;;;;;;;13.95;12.60;;;5.10;99.90;;;;;;2055339;29;20015;-81
2021/01/08 00:14:37;;;;;;;13.23;11.93;;;5.10;99.90;;;;;;2056117;29;20043;-81
2021/01/08 00:16:06;;;;;;;14.57;13.07;;;5.10;99.90;;;;;;2056145;29;20042;-81
2021/01/08 00:17:19;;;;;;;12.57;11.35;;;5.10;99.90;;;;;;2042700;29;20100;-81
2021/01/08 00:18:19;;;;;;;13.35;12.05;;;5.10;99.90;;;;;;2054352;29;20024;-80
2021/01/08 00:19:22;;;;;;;12.73;11.43;;;5.00;99.90;;;;;;2055210;29;20046;-80
2021/01/08 00:20:53;;;;;;;;;;;;;;;;;;;;;
2021/01/08 00:21:54;;;;;;;12.23;11.13;;;5.00;99.90;;;;;;2060659;28;20015;-81
2021/01/08 00:23:01;;;;;;;13.00;11.63;;;4.90;99.90;;;;;;2055989;29;20051;-81
2021/01/08 00:24:05;;;;;;;13.60;12.30;;;4.90;99.90;;;;;;2050015;29;20046;-81
2021/01/08 00:25:06;;;;;;;13.27;12.05;;;4.90;99.90;;;;;;2055494;29;20054;-80
2021/01/08 00:26:09;;;;;;;12.82;11.63;;;4.90;99.90;;;;;;2056128;28;20088;-81
2021/01/08 00:27:10;;;;;;;13.27;12.07;;;5.00;99.90;;;;;;2057121;28;20032;-81
2021/01/08 00:28:11;;;;;;;12.80;11.52;;;4.90;99.90;;;;;;2064161;28;20046;-81
2021/01/08 00:29:15;;;;;;;13.57;12.05;;;5.00;99.90;;;;;;2072119;28;20003;-81
2021/01/08 00:30:16;;;;;;;13.57;12.23;;;5.00;99.90;;;;;;2064588;28;20542;-81
2021/01/08 00:31:20;;;;;;;13.57;12.23;;;5.00;99.90;;;;;;2061012;28;20031;-80
2021/01/08 00:32:20;;;;;;;13.65;12.25;;;5.00;99.90;;;;;;2056868;29;20050;-81
2021/01/08 00:33:23;;;;;;;13.05;11.73;;;5.00;99.90;;;;;;2056443;29;20008;-80
2021/01/08 00:34:27;;;;;;;12.40;11.10;;;5.00;99.90;;;;;;2063944;28;20032;-80
2021/01/08 00:35:53;;;;;;;12.75;11.65;;;5.00;99.90;;;;;;2060390;28;20046;-80
2021/01/08 00:36:55;;;;;;;12.48;11.27;;;5.00;99.90;;;;;;2055736;29;20039;-82
2021/01/08 00:37:55;;;;;;;12.60;11.40;;;5.10;99.90;;;;;;2054983;29;20102;-81
2021/01/08 00:38:57;;;;;;;11.90;10.80;;;5.10;99.90;;;;;;2055341;29;20032;-80
2021/01/08 00:39:57;;;;;;;12.85;11.52;;;5.00;99.90;;;;;;2055462;28;20027;-80
2021/01/08 00:40:58;;;;;;;12.48;11.27;;;5.00;99.90;;;;;;2064778;28;20031;-81
2021/01/08 00:42:00;;;;;;;12.02;10.98;;;5.00;99.90;;;;;;2066972;28;20077;-80
2021/01/08 00:43:01;;;;;;;11.85;10.75;;;5.00;99.90;;;;;;2056301;29;20023;-80
2021/01/08 00:44:03;;;;;;;12.35;11.15;;;5.00;99.90;;;;;;2054843;29;20024;-81
2021/01/08 00:45:06;;;;;;;13.90;12.60;;;5.10;99.90;;;;;;2055012;29;20082;-81
2021/01/08 00:46:06;;;;;;;12.38;11.23;;;5.10;99.90;;;;;;2056148;28;20047;-80
2021/01/08 00:47:07;;;;;;;13.15;11.90;;;5.10;99.90;;;;;;2054905;29;20106;-81
2021/01/08 00:48:10;;;;;;;13.02;11.82;;;5.10;99.90;;;;;;2055256;28;20459;-81
2021/01/08 00:49:14;;;;;;;12.63;11.35;;;5.10;99.90;;;;;;2057994;28;20031;-81
2021/01/08 00:50:15;;;;;;;12.40;11.30;;;5.10;99.90;;;;;;2054227;29;20399;-81
2021/01/08 00:51:16;;;;;;;12.93;11.68;;;5.10;99.90;;;;;;2056672;28;20015;-80
2021/01/08 00:52:16;;;;;;;13.57;12.27;;;5.10;99.90;;;;;;2055830;28;20084;-80
2021/01/08 00:53:17;;;;;;;13.18;11.95;;;5.10;99.90;;;;;;2057573;28;20066;-81
2021/01/08 00:54:21;;;;;;;13.82;12.43;;;5.10;99.90;;;;;;2063571;28;20035;-81
2021/01/08 00:55:21;;;;;;;12.88;11.68;;;5.10;99.90;;;;;;2060586;28;20030;-80
2021/01/08 00:56:22;;;;;;;12.68;11.38;;;5.10;99.90;;;;;;2055670;29;20015;-80
2021/01/08 00:57:23;;;;;;;13.57;12.27;;;5.10;99.90;;;;;;2056099;28;20019;-80
2021/01/08 00:58:26;;;;;;;13.27;12.07;;;5.10;99.90;;;;;;2058209;28;20065;-80
2021/01/08 00:59:26;;;;;;;13.20;11.95;;;5.10;99.90;;;;;;2055807;28;20031;-81
2021/01/08 01:00:27;;;;;;;14.07;12.77;;;5.10;99.90;;;;;;2063231;28;20034;-82
2021/01/08 01:01:28;;;;;;;13.00;11.70;;;5.00;99.90;;;;;;2063513;28;20054;-80
2021/01/08 01:02:28;;;;;;;13.90;12.50;;;5.10;99.90;;;;;;2055870;29;20031;-79
2021/01/08 01:03:29;;;;;;;12.85;11.60;;;5.10;99.90;;;;;;2055763;29;20160;-81
2021/01/08 01:04:30;;;;;;;13.02;11.85;;;5.10;99.90;;;;;;2056408;28;20040;-81
2021/01/08 01:05:30;;;;;;;13.32;12.02;;;5.10;99.90;;;;;;2060187;28;20058;-80
2021/01/08 01:06:32;;;;;;;12.32;11.23;;;5.10;99.90;;;;;;2055780;29;20028;-80
2021/01/08 01:07:33;;;;;;;12.93;11.73;;;5.20;99.90;;;;;;2054652;29;20030;-80
2021/01/08 01:08:34;;;;;;;12.48;11.27;;;5.20;99.90;;;;;;2057626;28;20039;-79
2021/01/08 01:09:34;;;;;;;12.48;11.18;;;5.20;99.90;;;;;;2057672;28;20968;-82
2021/01/08 01:10:35;;;;;;;12.15;11.02;;;5.20;99.90;;;;;;2063365;28;20078;-81
2021/01/08 01:11:35;;;;;;;12.40;11.20;;;5.20;99.90;;;;;;2063722;28;20550;-81
2021/01/08 01:12:39;;;;;;;12.70;11.60;;;5.20;99.90;;;;;;2059939;28;20031;-81
2021/01/08 01:13:40;;;;;;;12.55;11.35;;;5.20;99.90;;;;;;2061741;28;20034;-80
2021/01/08 01:14:40;;;;;;;11.77;10.68;;;5.10;99.90;;;;;;2054819;29;20079;-80
2021/01/08 01:15:41;;;;;;;12.25;11.15;;;5.10;99.90;;;;;;2047004;29;20036;-81
2021/01/08 01:16:41;;;;;;;12.50;11.30;;;5.10;99.90;;;;;;2054499;28;20042;-80
2021/01/08 01:17:42;;;;;;;11.68;10.50;;;5.10;99.90;;;;;;2051205;28;20035;-83
2021/01/08 01:18:43;;;;;;;12.15;10.98;;;5.10;99.90;;;;;;2048550;29;20094;-83
2021/01/08 01:19:44;;;;;;;13.57;11.23;;;5.10;99.90;;;;;;2049560;28;20051;-83
2021/01/08 01:20:47;;;;;;;12.27;11.07;;;5.10;99.90;;;;;;2050649;28;20027;-83
2021/01/08 01:21:48;;;;;;;11.43;10.43;;;5.10;99.90;;;;;;2056962;28;20137;-82
2021/01/08 01:22:48;;;;;;;11.68;10.60;;;5.10;99.90;;;;;;2056909;28;20542;-83
2021/01/08 01:23:49;;;;;;;12.40;11.18;;;5.20;99.90;;;;;;2050144;28;20438;-81
2021/01/08 01:24:50;;;;;;;11.30;10.20;;;5.20;99.90;;;;;;2057002;28;20027;-82
2021/01/08 01:25:50;;;;;;;12.30;11.20;;;5.20;99.90;;;;;;2053368;28;20078;-82
2021/01/08 01:27:00;;;;;;;12.18;11.13;;;5.20;99.90;;;;;;2057975;28;20031;-82
2021/01/08 01:28:01;;;;;;;12.30;11.13;;;5.20;99.90;;;;;;2051425;28;20527;-82
2021/01/08 01:29:01;;;;;;;12.00;10.88;;;5.20;99.90;;;;;;2050755;28;20035;-83
2021/01/08 01:30:02;;;;;;;13.18;11.98;;;5.20;99.90;;;;;;2050397;29;20028;-82
2021/01/08 01:31:04;;;;;;;12.90;11.70;;;5.20;99.90;;;;;;2056055;28;20445;-83
2021/01/08 01:32:05;;;;;;;11.95;10.77;;;5.20;99.90;;;;;;2051185;28;20023;-83
2021/01/08 01:33:05;;;;;;;12.88;11.57;;;5.20;99.90;;;;;;2050543;29;20031;-82
2021/01/08 01:34:06;;;;;;;12.52;11.32;;;5.20;99.90;;;;;;2041805;29;20063;-82
2021/01/08 01:35:07;;;;;;;11.00;10.00;;;5.20;99.90;;;;;;2050339;29;20374;-83
2021/01/08 01:36:09;;;;;;;12.45;11.25;;;5.20;99.90;;;;;;2050371;28;20039;-83
2021/01/08 01:37:09;;;;;;;13.18;11.98;;;5.20;99.90;;;;;;2054245;28;20078;-83
2021/01/08 01:38:10;;;;;;;12.65;11.45;;;5.20;99.90;;;;;;2058916;28;20034;-82
2021/01/08 01:39:11;;;;;;;11.38;10.25;;;5.20;99.90;;;;;;2058183;28;20038;-83
2021/01/08 01:40:12;;;;;;;10.55;9.50;;;5.20;99.90;;;;;;2050769;28;20053;-81
2021/01/08 01:41:13;;;;;;;12.05;10.82;;;5.20;99.90;;;;;;2059461;28;20026;-81
2021/01/08 01:42:13;;;;;;;12.25;10.77;;;5.20;99.90;;;;;;2050654;29;20032;-82
2021/01/08 01:43:17;;;;;;;12.32;11.13;;;5.20;99.90;;;;;;2051164;29;20054;-82
2021/01/08 01:44:21;;;;;;;11.98;10.73;;;5.20;99.90;;;;;;2043015;29;20095;-83
2021/01/08 01:45:21;;;;;;;11.32;10.20;;;5.20;99.90;;;;;;2046343;29;20027;-82
2021/01/08 01:46:22;;;;;;;11.48;10.20;;;5.20;99.90;;;;;;2050887;29;20031;-81
2021/01/08 01:47:23;;;;;;;11.20;10.20;;;5.20;99.90;;;;;;2050101;29;20047;-82
2021/01/08 01:48:24;;;;;;;10.30;9.40;;;5.30;99.90;;;;;;2057191;28;20079;-82
2021/01/08 01:49:25;;;;;;;10.40;9.60;;;5.30;99.90;;;;;;2052051;28;20047;-83
2021/01/08 01:50:26;;;;;;;10.95;10.02;;;5.30;99.90;;;;;;2051214;28;20027;-83
2021/01/08 01:51:27;;;;;;;11.13;10.02;;;5.30;99.90;;;;;;2050412;29;20098;-83
2021/01/08 01:52:28;;;;;;;10.18;9.27;;;5.30;99.90;;;;;;2049383;29;20058;-83
2021/01/08 01:53:29;;;;;;;9.75;8.80;;;5.30;99.90;;;;;;2054243;28;20026;-81
2021/01/08 01:54:30;;;;;;;10.55;9.55;;;5.30;99.90;;;;;;2056111;28;20237;-82
2021/01/08 01:55:34;;;;;;;9.95;9.05;;;5.30;99.90;;;;;;2049694;29;20102;-82
2021/01/08 01:56:34;;;;;;;10.00;9.05;;;5.30;99.90;;;;;;2057772;28;20335;-82
2021/01/08 01:57:35;;;;;;;10.38;9.38;;;5.20;99.90;;;;;;2049996;29;20046;-83
2021/01/08 01:58:35;;;;;;;10.52;9.35;;;5.20;99.90;;;;;;2049931;29;20099;-83
2021/01/08 01:59:36;;;;;;;9.73;8.88;;;5.30;99.90;;;;;;2050731;29;20502;-83
2021/01/08 02:00:37;;;;;;;9.80;8.90;;;5.20;99.90;;;;;;2050783;29;20090;-83
2021/01/08 02:01:38;;;;;;;9.13;8.27;;;5.20;99.90;;;;;;2050768;29;20135;-83
2021/01/08 02:02:45;;;;;;;9.63;8.68;;;5.20;99.90;;;;;;2050076;29;20042;-83
2021/01/08 02:03:49;;;;;;;8.82;8.02;;;5.20;99.90;;;;;;2057690;28;20038;-83
2021/01/08 02:04:52;;;;;;;8.15;7.35;;;5.20;99.90;;;;;;2051557;28;20682;-83
2021/01/08 02:05:57;;;;;;;8.35;7.65;;;5.20;99.90;;;;;;2051556;28;20023;-83
2021/01/08 02:06:59;;;;;;;9.25;8.35;;;5.20;99.90;;;;;;2051298;29;20098;-83
2021/01/08 02:08:15;;;;;;;8.95;8.15;;;5.20;99.90;;;;;;2053519;28;20019;-83
2021/01/08 02:09:16;;;;;;;8.30;7.60;;;5.20;99.90;;;;;;2054039;28;20059;-83
2021/01/08 02:10:19;;;;;;;8.90;8.10;;;5.20;99.90;;;;;;2052008;29;20053;-83
2021/01/08 02:13:08;;;;;;;8.35;7.63;;;5.20;99.90;;;;;;2054580;28;20515;-83
2021/01/08 02:15:01;;;;;;;8.25;7.55;;;5.20;99.90;;;;;;2061907;28;20122;-82
2021/01/08 02:16:23;;;;;;;9.20;8.35;;;5.20;99.90;;;;;;2061755;28;20050;-82
2021/01/08 02:18:05;;;;;;;;;;;;;;;;;;;;;
2021/01/08 02:19:17;;;;;;;8.30;7.60;;;5.20;99.90;;;;;;2050803;29;20050;-82
2021/01/08 02:20:30;;;;;;;;;;;;;;;;;;;;;
2021/01/08 02:21:37;;;;;;;10.15;9.15;;;5.20;99.90;;;;;;2054492;28;20034;-82
2021/01/08 02:23:05;;;;;;;10.50;9.07;;;5.20;99.90;;;;;;2045850;29;20123;-80
2021/01/08 02:24:28;;;;;;;;;;;;;;;;;;;;;
2021/01/08 02:27:13;;;;;;;10.55;9.55;;;5.20;99.90;;;;;;2046678;29;20031;-81
2021/01/08 02:28:13;;;;;;;10.38;9.35;;;5.20;99.90;;;;;;2050553;28;20035;-81
2021/01/08 02:29:14;;;;;;;10.90;9.93;;;5.20;99.90;;;;;;2051086;29;20027;-84
2021/01/08 02:30:16;;;;;;;10.70;9.70;;;5.20;99.90;;;;;;2051585;29;20080;-82
2021/01/08 02:31:17;;;;;;;9.25;8.45;;;5.20;99.90;;;;;;2050375;28;20643;-83
2021/01/08 02:32:17;;;;;;;10.38;9.40;;;5.30;99.90;;;;;;2046766;29;20484;-81
2021/01/08 02:33:19;;;;;;;11.57;10.48;;;5.30;99.90;;;;;;2045045;28;20023;-83
2021/01/08 02:34:24;;;;;;;10.25;9.18;;;5.30;99.90;;;;;;2042369;29;20051;-83
2021/01/08 02:35:25;;;;;;;12.15;10.93;;;5.30;99.90;;;;;;2047425;29;20035;-82
2021/01/08 02:36:26;;;;;;;12.13;10.93;;;5.30;99.90;;;;;;2050527;29;20042;-82
2021/01/08 02:37:32;;;;;;;12.50;11.30;;;5.40;99.90;;;;;;2056623;28;20037;-81
2021/01/08 02:38:33;;;;;;;14.07;12.68;;;5.40;99.90;;;;;;2052963;28;20041;-83
2021/01/08 02:39:34;;;;;;;13.40;11.80;;;5.40;99.90;;;;;;2055259;28;20027;-83
2021/01/08 02:40:35;;;;;;;12.50;11.30;;;5.40;99.90;;;;;;2055594;28;20171;-82
2021/01/08 02:41:37;;;;;;;13.32;11.93;;;5.30;99.90;;;;;;2059835;28;20035;-83
2021/01/08 02:42:39;;;;;;;12.98;11.77;;;5.40;99.90;;;;;;2051291;28;20507;-83
2021/01/08 02:43:43;;;;;;;12.40;11.20;;;5.30;99.90;;;;;;2050321;29;20031;-83
2021/01/08 02:44:43;;;;;;;12.98;11.77;;;5.30;99.90;;;;;;2051673;28;20027;-81
2021/01/08 02:45:44;;;;;;;14.13;12.75;;;5.30;99.90;;;;;;2051273;28;20027;-80
2021/01/08 02:46:47;;;;;;;13.57;12.27;;;5.40;99.90;;;;;;2051674;29;20093;-81
2021/01/08 02:47:50;;;;;;;13.07;11.93;;;5.40;99.90;;;;;;2051106;29;20567;-82
2021/01/08 02:48:56;;;;;;;14.13;12.73;;;5.40;99.90;;;;;;2054447;28;20027;-82
2021/01/08 02:49:57;;;;;;;11.38;10.27;;;5.40;99.90;;;;;;2056299;28;20015;-83
2021/01/08 02:50:57;;;;;;;14.18;12.77;;;5.40;99.90;;;;;;2059482;28;20086;-81
2021/01/08 02:52:01;;;;;;;12.23;10.98;;;5.40;99.90;;;;;;2054996;29;20015;-80
2021/01/08 02:53:06;;;;;;;13.95;12.55;;;5.40;99.90;;;;;;2055491;29;20020;-82
2021/01/08 02:54:08;;;;;;;13.68;12.38;;;5.40;99.90;;;;;;2046911;29;20031;-82
2021/01/08 02:55:11;;;;;;;12.48;11.23;;;5.40;99.90;;;;;;2050851;29;20046;-80
2021/01/08 02:56:17;;;;;;;14.23;12.93;;;5.40;99.90;;;;;;2054721;29;20011;-82
2021/01/08 02:57:18;;;;;;;12.98;11.77;;;5.40;99.90;;;;;;2053459;29;20035;-80
2021/01/08 02:58:20;;;;;;;13.02;11.82;;;5.40;99.90;;;;;;2057030;28;20092;-82
2021/01/08 02:59:37;;;;;;;13.07;11.88;;;5.40;99.90;;;;;;2063301;28;20027;-82
2021/01/08 03:00:52;;;;;;;13.30;12.10;;;5.40;99.90;;;;;;2046878;29;20052;-82
2021/01/08 03:01:55;;;;;;;12.65;11.45;;;5.40;99.90;;;;;;2047267;29;20024;-81
2021/01/08 03:02:58;;;;;;;12.45;11.25;;;5.40;99.90;;;;;;2055685;29;20038;-81
2021/01/08 03:04:21;;;;;;;;;;;;;;;;;;;;;
2021/01/08 03:05:27;;;;;;;12.77;11.55;;;5.40;99.90;;;;;;2053597;29;20016;-80
2021/01/08 03:06:29;;;;;;;13.27;10.25;;;5.40;99.90;;;;;;2060057;28;20062;-81
2021/01/08 03:07:32;;;;;;;10.18;9.27;;;5.50;99.90;;;;;;2063709;28;20104;-80
2021/01/08 03:08:39;;;;;;;12.23;11.02;;;5.50;99.90;;;;;;2055438;28;20075;-81
2021/01/08 03:10:00;;;;;;;11.57;10.48;;;5.50;99.90;;;;;;2050912;29;20055;-80
2021/01/08 03:11:40;;;;;;;;;;;;;;;;;;;;;
2021/01/08 03:12:51;;;;;;;12.15;10.95;;;5.50;99.90;;;;;;2061602;28;20031;-80
2021/01/08 03:13:55;;;;;;;11.98;10.88;;;5.40;99.90;;;;;;2055254;29;20043;-80
2021/01/08 03:16:29;;;;;;;12.82;11.63;;;5.40;99.90;;;;;;2052361;28;20215;-80
2021/01/08 03:17:36;;;;;;;11.20;10.18;;;5.40;99.90;;;;;;2057333;28;20008;-81
2021/01/08 03:18:46;;;;;;;12.13;10.93;;;5.40;99.90;;;;;;2062345;28;20023;-80
2021/01/08 03:19:49;;;;;;;12.20;10.90;;;5.50;99.90;;;;;;2056908;29;20066;-81
2021/01/08 03:20:50;;;;;;;10.77;9.77;;;5.40;99.90;;;;;;2059472;28;20123;-80
2021/01/08 03:21:51;;;;;;;11.27;10.18;;;5.50;99.90;;;;;;2072988;28;20019;-80
2021/01/08 03:22:52;;;;;;;11.80;10.63;;;5.50;99.90;;;;;;2065500;28;20081;-80
2021/01/08 03:23:52;;;;;;;13.00;11.43;;;5.50;99.90;;;;;;2049744;28;20063;-80
2021/01/08 03:25:05;;;;;;;12.93;11.63;;;5.50;99.90;;;;;;2064975;28;20102;-81
2021/01/08 03:26:05;;;;;;;10.80;9.80;;;5.50;99.90;;;;;;2061550;28;20053;-80
2021/01/08 03:27:06;;;;;;;12.60;11.30;;;5.50;99.90;;;;;;2049213;29;20052;-80
2021/01/08 03:28:06;;;;;;;11.98;10.88;;;5.50;99.90;;;;;;2056143;29;20047;-81
2021/01/08 03:29:30;;;;;;;;;;;;;;;;;;;;;
2021/01/08 03:30:31;;;;;;;12.05;10.95;;;5.50;99.90;;;;;;2064991;28;20027;-81
2021/01/08 03:31:32;;;;;;;11.48;10.48;;;5.50;99.90;;;;;;2059033;28;20055;-81
2021/01/08 03:32:33;;;;;;;10.77;9.77;;;5.50;99.90;;;;;;2057291;29;20031;-81
2021/01/08 03:33:36;;;;;;;11.00;10.00;;;5.50;99.90;;;;;;2057853;29;20038;-81
2021/01/08 03:34:52;;;;;;;;;;;;;;;;;;;;;
2021/01/08 03:36:03;;;;;;;10.70;9.50;;;5.50;99.90;;;;;;2057251;29;20035;-80
2021/01/08 03:37:07;;;;;;;9.73;8.82;;;5.50;99.90;;;;;;2056985;29;20583;-80
2021/01/08 03:38:08;;;;;;;9.43;8.52;;;5.50;99.90;;;;;;2048901;29;20028;-81
2021/01/08 03:39:08;;;;;;;9.27;8.38;;;5.50;99.90;;;;;;2056896;28;20038;-81
2021/01/08 03:40:21;;;;;;;10.75;9.75;;;5.50;99.90;;;;;;2064881;28;20091;-80
2021/01/08 03:41:22;;;;;;;10.02;9.02;;;5.50;99.90;;;;;;2057403;28;20035;-80
2021/01/08 03:42:25;;;;;;;9.70;8.70;;;5.50;99.90;;;;;;2056586;28;20024;-80
2021/01/08 03:43:33;;;;;;;9.10;8.27;;;5.50;99.90;;;;;;2057053;29;20019;-80
2021/01/08 03:44:37;;;;;;;8.75;7.93;;;5.50;99.90;;;;;;2056434;29;20247;-80
2021/01/08 03:45:38;;;;;;;8.57;7.78;;;5.50;99.90;;;;;;2055983;28;20545;-81
2021/01/08 03:46:39;;;;;;;8.57;7.78;;;5.50;99.90;;;;;;2064122;28;20116;-81
2021/01/08 03:47:39;;;;;;;8.30;7.57;;;5.50;99.90;;;;;;2064308;28;20014;-81
2021/01/08 03:48:42;;;;;;;8.70;7.90;;;5.50;99.90;;;;;;2063793;28;20054;-80
2021/01/08 03:49:53;;;;;;;8.57;7.72;;;5.50;99.90;;;;;;2056064;29;20037;-80
2021/01/08 03:50:54;;;;;;;8.32;7.53;;;5.50;99.90;;;;;;2057039;28;20027;-80
2021/01/08 03:51:57;;;;;;;8.88;8.07;;;5.50;99.90;;;;;;2066118;28;20046;-81
2021/01/08 03:52:57;;;;;;;9.30;8.43;;;5.40;99.90;;;;;;2056548;29;20598;-81
2021/01/08 03:54:15;;;;;;;9.00;8.05;;;5.40;99.90;;;;;;2055883;29;20058;-81
2021/01/08 03:55:19;;;;;;;8.25;7.45;;;5.40;99.90;;;;;;2056699;29;20102;-81
2021/01/08 03:56:20;;;;;;;8.32;7.53;;;5.40;99.90;;;;;;2056752;28;20016;-81
2021/01/08 03:57:20;;;;;;;8.82;7.85;;;5.40;99.90;;;;;;2056812;29;20095;-80
2021/01/08 03:58:21;;;;;;;7.88;7.13;;;5.40;99.90;;;;;;2056767;28;20023;-80
2021/01/08 03:59:39;;;;;;;7.80;7.13;;;5.40;99.90;;;;;;2057235;29;20046;-81
2021/01/08 04:00:49;;;;;;;8.15;7.45;;;5.40;99.90;;;;;;2048991;29;20030;-81
2021/01/08 04:01:50;;;;;;;8.57;7.82;;;5.30;99.90;;;;;;2053579;29;20024;-80
2021/01/08 04:02:50;;;;;;;9.15;8.27;;;5.30;99.90;;;;;;2055969;29;20087;-80
2021/01/08 04:03:53;;;;;;;9.15;8.35;;;5.30;99.90;;;;;;2055780;29;20519;-80
2021/01/08 04:04:54;;;;;;;9.25;8.45;;;5.40;99.90;;;;;;2055314;29;20035;-80
2021/01/08 04:05:55;;;;;;;9.02;8.23;;;5.30;99.90;;;;;;2047765;29;20039;-80
2021/01/08 04:06:55;;;;;;;9.80;8.73;;;5.40;99.90;;;;;;2055025;29;20116;-80
2021/01/08 04:08:00;;;;;;;9.75;8.88;;;5.30;99.90;;;;;;2063901;28;20110;-79
2021/01/08 04:09:01;;;;;;;8.93;8.13;;;5.30;99.90;;;;;;2056205;29;20082;-80
2021/01/08 04:10:03;;;;;;;8.90;8.10;;;5.30;99.90;;;;;;2056292;29;20027;-80
2021/01/08 04:11:03;;;;;;;9.57;8.00;;;5.30;99.90;;;;;;2055640;28;20028;-80
2021/01/08 04:12:04;;;;;;;9.68;8.88;;;5.30;99.90;;;;;;2055667;28;20027;-81
2021/01/08 04:13:05;;;;;;;9.93;8.98;;;5.30;99.90;;;;;;2055675;28;20030;-79
2021/01/08 04:14:05;;;;;;;9.02;8.02;;;5.30;99.90;;;;;;2055738;29;20166;-80
2021/01/08 04:15:07;;;;;;;9.13;8.32;;;5.30;99.90;;;;;;2056338;29;20027;-80
2021/01/08 04:16:07;;;;;;;8.77;7.88;;;5.30;99.90;;;;;;2056268;28;20027;-80
2021/01/08 04:17:08;;;;;;;8.27;7.47;;;5.30;99.90;;;;;;2056025;29;20066;-79
2021/01/08 04:18:09;;;;;;;8.73;7.93;;;5.20;99.90;;;;;;2061220;28;20066;-79
2021/01/08 04:19:12;;;;;;;8.35;7.65;;;5.20;99.90;;;;;;2063502;28;20050;-79
2021/01/08 04:20:13;;;;;;;9.02;8.13;;;5.20;99.90;;;;;;2054707;28;20047;-79
2021/01/08 04:21:15;;;;;;;9.30;8.27;;;5.20;99.90;;;;;;2062611;28;20058;-80
2021/01/08 04:22:16;;;;;;;9.95;8.25;;;5.20;99.90;;;;;;2062977;28;20019;-79
2021/01/08 04:23:16;;;;;;;9.18;8.07;;;5.20;99.90;;;;;;2060575;28;20042;-79
2021/01/08 04:24:17;;;;;;;8.18;7.38;;;5.20;99.90;;;;;;2055498;28;20045;-79
2021/01/08 04:25:18;;;;;;;8.95;8.15;;;5.20;99.90;;;;;;2056135;29;20026;-80
2021/01/08 04:26:18;;;;;;;8.48;7.68;;;5.20;99.90;;;;;;2062681;28;20035;-80
2021/01/08 04:27:19;;;;;;;9.32;8.35;;;5.20;99.90;;;;;;2056659;28;20089;-79
2021/01/08 04:28:22;;;;;;;7.72;7.03;;;5.20;99.90;;;;;;2053269;29;20451;-80
2021/01/08 04:29:22;;;;;;;8.35;7.38;;;5.20;99.90;;;;;;2043938;29;20047;-80
2021/01/08 04:30:23;;;;;;;9.00;8.18;;;5.20;99.90;;;;;;2054903;29;20515;-79
2021/01/08 04:31:24;;;;;;;7.50;6.85;;;5.30;99.90;;;;;;2054721;29;20055;-79
2021/01/08 04:32:25;;;;;;;8.02;7.25;;;5.30;99.90;;;;;;2053829;29;20096;-79
2021/01/08 04:33:26;;;;;;;8.55;7.75;;;5.30;99.90;;;;;;2055014;29;20039;-82
2021/01/08 04:34:30;;;;;;;9.57;8.20;;;5.30;99.90;;;;;;2053420;28;20027;-80
2021/01/08 04:35:30;;;;;;;7.50;6.90;;;5.30;99.90;;;;;;2055529;28;20046;-81
2021/01/08 04:36:34;;;;;;;8.23;7.53;;;5.30;99.90;;;;;;2054103;29;20039;-80
2021/01/08 04:37:34;;;;;;;7.95;7.20;;;5.30;99.90;;;;;;2053647;29;20083;-80
2021/01/08 04:38:38;;;;;;;8.02;7.32;;;5.30;99.90;;;;;;2062090;28;20042;-80
2021/01/08 04:39:39;;;;;;;8.75;7.95;;;5.30;99.90;;;;;;2054059;29;20035;-80
2021/01/08 04:40:42;;;;;;;8.32;7.38;;;5.30;99.90;;;;;;2059502;28;20037;-81
2021/01/08 04:41:43;;;;;;;8.95;7.97;;;5.30;99.90;;;;;;2055532;28;20051;-80
2021/01/08 04:42:44;;;;;;;9.00;7.90;;;5.30;99.90;;;;;;2063276;28;20046;-80
2021/01/08 04:43:44;;;;;;;9.18;8.23;;;5.30;99.90;;;;;;2059170;28;20034;-80
2021/01/08 04:44:45;;;;;;;8.38;7.57;;;5.30;99.90;;;;;;2063159;28;20015;-81
2021/01/08 04:45:46;;;;;;;8.70;7.90;;;5.30;99.90;;;;;;2063962;28;20019;-80
2021/01/08 04:46:49;;;;;;;8.32;7.53;;;5.30;99.90;;;;;;2061226;28;20034;-80
2021/01/08 04:47:52;;;;;;;8.45;7.65;;;5.30;99.90;;;;;;2055438;28;20294;-80
2021/01/08 04:48:57;;;;;;;8.13;7.32;;;5.30;99.90;;;;;;2054604;29;20031;-80
2021/01/08 04:49:59;;;;;;;8.30;7.55;;;5.30;99.90;;;;;;2055345;29;20030;-80
2021/01/08 04:51:03;;;;;;;9.13;8.23;;;5.30;99.90;;;;;;2055723;29;20395;-80
2021/01/08 04:52:06;;;;;;;8.20;7.43;;;5.30;99.90;;;;;;2064471;28;20023;-80
2021/01/08 04:53:12;;;;;;;8.52;7.78;;;5.30;99.90;;;;;;2055202;29;20478;-79
2021/01/08 04:54:13;;;;;;;8.85;7.90;;;5.30;99.90;;;;;;2055951;28;20223;-80
2021/01/08 04:55:15;;;;;;;8.25;7.47;;;5.20;99.90;;;;;;2063292;28;20078;-79
2021/01/08 04:56:21;;;;;;;9.00;6.80;;;5.30;99.90;;;;;;2055660;29;20023;-79
2021/01/08 04:57:33;;;;;;;8.23;7.43;;;5.20;99.90;;;;;;2054915;29;20027;-81
2021/01/08 04:58:35;;;;;;;8.77;7.40;;;5.20;99.90;;;;;;2059684;28;20097;-80
2021/01/08 04:59:36;;;;;;;8.60;7.78;;;5.20;99.90;;;;;;2063245;28;20074;-80
2021/01/08 05:00:37;;;;;;;8.05;7.35;;;5.20;99.90;;;;;;2071252;28;20057;-80
2021/01/08 05:01:38;;;;;;;8.35;7.55;;;5.10;99.90;;;;;;2063051;28;20050;-80
2021/01/08 05:02:39;;;;;;;8.52;7.72;;;5.10;99.90;;;;;;2061254;28;20036;-81
2021/01/08 05:03:40;;;;;;;8.52;7.72;;;5.10;99.90;;;;;;2054936;28;20039;-80
2021/01/08 05:04:42;;;;;;;7.90;7.20;;;5.10;99.90;;;;;;2057327;28;20055;-79
2021/01/08 05:05:42;;;;;;;9.10;7.60;;;5.10;99.90;;;;;;2063615;28;20029;-80
2021/01/08 05:06:44;;;;;;;8.88;7.97;;;5.10;99.90;;;;;;2059011;28;20034;-80
2021/01/08 05:07:47;;;;;;;7.93;7.22;;;5.10;99.90;;;;;;2054833;29;20039;-80
2021/01/08 05:08:47;;;;;;;8.00;7.30;;;5.00;99.90;;;;;;2055181;28;20030;-81
2021/01/08 05:09:49;;;;;;;8.68;7.75;;;5.10;99.90;;;;;;2054800;28;20042;-79
2021/01/08 05:10:50;;;;;;;8.07;7.28;;;5.10;99.90;;;;;;2053662;29;20027;-79
2021/01/08 05:11:56;;;;;;;8.45;7.75;;;5.10;99.90;;;;;;2053735;28;20027;-79
2021/01/08 05:12:57;;;;;;;7.63;6.93;;;5.10;99.90;;;;;;2055062;28;20094;-79
2021/01/08 05:14:03;;;;;;;8.50;7.70;;;5.10;99.90;;;;;;2045764;29;20020;-80
2021/01/08 05:15:15;;;;;;;8.48;7.68;;;5.10;99.90;;;;;;2053589;29;20023;-79
2021/01/08 05:16:15;;;;;;;8.55;7.75;;;5.10;99.90;;;;;;2054406;28;20551;-79
2021/01/08 05:17:29;;;;;;;8.50;7.70;;;5.00;99.90;;;;;;2053195;29;20042;-79
2021/01/08 05:18:30;;;;;;;6.78;6.20;;;5.00;99.90;;;;;;2045885;29;20110;-79
2021/01/08 05:19:32;;;;;;;8.15;7.35;;;5.00;99.90;;;;;;2049483;29;20024;-79
2021/01/08 05:20:33;;;;;;;10.10;7.47;;;5.00;99.90;;;;;;2050976;29;20035;-78
2021/01/08 05:21:34;;;;;;;8.23;7.43;;;5.00;99.90;;;;;;2052027;29;20490;-79
2021/01/08 05:22:35;;;;;;;8.90;7.88;;;5.00;99.90;;;;;;2052493;29;20051;-79
2021/01/08 05:23:36;;;;;;;8.88;7.97;;;5.00;99.90;;;;;;2052020;28;20083;-79
2021/01/08 05:24:37;;;;;;;9.82;8.85;;;5.00;99.90;;;;;;2043386;29;20067;-79
2021/01/08 05:25:45;;;;;;;7.68;6.97;;;5.00;99.90;;;;;;2051833;28;20435;-80
2021/01/08 05:26:46;;;;;;;9.15;8.25;;;5.00;99.90;;;;;;2058411;28;20037;-78
2021/01/08 05:28:01;;;;;;;9.38;8.30;;;5.00;99.90;;;;;;2052148;29;20078;-79
2021/01/08 05:29:03;;;;;;;8.27;7.50;;;5.00;99.90;;;;;;2048442;28;20091;-78
2021/01/08 05:30:24;;;;;;;8.00;7.20;;;5.00;99.90;;;;;;2059488;28;20101;-79
2021/01/08 05:31:30;;;;;;;7.35;6.65;;;5.00;99.90;;;;;;2044890;29;20020;-79
2021/01/08 05:32:31;;;;;;;8.20;7.13;;;5.00;99.90;;;;;;2049373;29;20466;-80
2021/01/08 05:33:33;;;;;;;7.95;7.18;;;4.90;99.90;;;;;;2052842;29;20032;-79
2021/01/08 05:34:34;;;;;;;8.23;7.43;;;4.90;99.90;;;;;;2060267;28;20030;-79
2021/01/08 05:35:36;;;;;;;7.63;6.93;;;5.00;99.90;;;;;;2067867;28;20688;-79
2021/01/08 05:36:41;;;;;;;8.63;7.72;;;5.00;99.90;;;;;;2059619;28;20466;-78
2021/01/08 05:37:56;;;;;;;8.43;7.63;;;5.00;99.90;;;;;;2045204;29;20031;-79
2021/01/08 05:39:02;;;;;;;8.52;7.57;;;5.00;99.90;;;;;;2052925;28;20039;-79
2021/01/08 05:40:04;;;;;;;7.38;6.78;;;5.00;99.90;;;;;;2055355;28;20123;-79
2021/01/08 05:41:05;;;;;;;7.50;6.70;;;5.00;99.90;;;;;;2055305;29;20583;-78